Tiempo atmosférico en la estación meteorológica de Talavera De La Reina, Toledo (372 m.)



Fecha
DESCASC
Temp. máxima en grados centígrados (hora)
DESCASC
Temp. mínima en grados centígrados (hora)
DESCASC
Temp. media en grados centígrados
DESCASC
Racha de viento máxima en m/sg (hora)
DESCASC
Velocidad máxima media en intervalos de 10 minutos(hora)
DESCASC
Precipitaciones diarias en mm
DESCASC
Precipitaciones de 00:00 a 06:00 en mm
DESCASC
Precipitaciones de 06:00 a 12:00 en mm
DESCASC
Precipitaciones de 12:00 a 18:00 en mm
DESCASC
Precipitaciones de 18:00 a 24:00 en mm
DESCASC
17-10-2019 19 (15:50) 7.2 (05:30) 13.1 6.67 (17:00) 3.61 (14:40) 0 0 0 0 0
16-10-2019 21.5 (15:50) 4.8 (08:50) 13.2 10 (16:00) 5.28 (13:20) 0.4 0.2 0 0 0.2
15-10-2019 19.2 (17:30) 3.9 (08:40) 11.6 8.06 (14:10) 4.72 (18:50) 0.2 0 0.2 0 0
14-10-2019 22.1 (15:40) 10.2 (23:59) 16.2 21.94 (16:40) 13.33 (16:40) 0.6 0 0.2 0.2 0.2
13-10-2019 27.1 (17:40) 12.9 (00:00) 20 7.22 (18:10) 3.33 (18:20) 0 0 0 0 0
12-10-2019 31.1 (16:30) 17.9 (00:00) 24.5 10.56 (18:00) 6.11 (17:40) 0 0 0 0 0
10-10-2019 29.2 (17:40) 14.1 (00:00) 21.7 10.28 (13:10) 5.83 (13:40) 0 0 0 0 0
09-10-2019 32.2 (17:30) 14.1 (00:00) 23.2 7.78 (18:00) 4.72 (18:40) 0 0 0 0 0
08-10-2019 34 (16:50) 14 (00:00) 24 7.5 (17:20) 3.61 (16:30) 0 0 0 0 0
07-10-2019 32.3 (16:30) 12.7 (00:00) 22.5 5 (17:10) 2.78 (18:10) 0 0 0 0 0
06-10-2019 30.4 (17:50) 11.3 (00:00) 20.8 7.5 (17:20) 3.89 (17:00) 0 0 0 0 0
05-10-2019 30 (16:30) 11 (08:50) 20.5 8.33 (17:10) 4.72 (18:30) 0 0 0 0 0
04-10-2019 31.3 (16:20) 10.9 (00:00) 21.1 8.89 (19:00) 4.72 (17:30) 0 0 0 0 0
03-10-2019 29.1 (17:10) 10.1 (00:00) 19.6 7.5 (17:00) 4.17 (18:20) 0 0 0 0 0
02-10-2019 27.7 (18:50) 9.4 (00:00) 18.6 5.28 (14:30) 2.78 (02:40) 0 0 0 0 0
01-10-2019 29.8 (16:50) 10.2 (00:00) 20 12.22 (14:50) 7.5 (18:30) 0 0 0 0 0
30-09-2019 33.7 (16:30) 10.5 (00:00) 22.1 8.33 (18:00) 4.44 (16:00) 0 0 0 0 0
29-09-2019 32.9 (15:40) 11.5 (00:00) 22.2 10.28 (16:30) 5.56 (16:40) 0 0 0 0 0
28-09-2019 32.6 (17:50) 11.2 (00:00) 21.9 7.5 (17:20) 3.89 (17:00) 0 0 0 0 0
27-09-2019 31.3 (17:20) 12.7 (00:00) 22 9.44 (16:30) 5.28 (17:30) 0 0 0 0 0
26-09-2019 31.1 (17:20) 12.7 (00:00) 21.9 7.22 (17:20) 3.89 (17:20) 0 0 0 0 0
25-09-2019 27.6 (17:40) 11.2 (00:00) 19.4 10.83 (00:20) 6.94 (00:20) 0 0 0 0 0
24-09-2019 29 (16:10) 9.4 (00:00) 19.2 13.61 (19:00) 8.06 (17:40) 0 0 0 0 0
23-09-2019 26.9 (17:40) 10.3 (00:00) 18.6 7.78 (18:10) 4.44 (17:40) 0 0 0 0 0
22-09-2019 24.3 (16:20) 15.4 (00:00) 19.8 11.39 (15:50) 6.67 (17:20) 0 0 0 0 0
21-09-2019 22.5 (13:30) 15.9 (00:00) 19.2 5.28 (17:20) 2.5 (17:10) 0 0 0 0 0
20-09-2019 30.1 (17:30) 18.7 (00:00) 24.4 12.22 (19:00) 6.11 (21:00) 0 0 0 0 0

Gráficas

Temp. máximas Temp. mínimas Temp. medias Precipitaciones Rachas de viento máximas Velocidades máximas media en intervalos de 10 minutos

Datos horarios

Fecha y hora oficial Temperatura (ºC) Velocidad del viento (km/h) Dirección del viento Racha (km/h) Dirección de racha Precipitación (mm) Presión (hPa) Tendencia (hPa) Humedad (%)
2019-10-19 23:00:00 14.3 2 Nordeste 8 Oeste 0 -- -- 90
2019-10-19 22:00:00 14.6 4 Sur 15 Sudoeste 0 -- -- 88
2019-10-19 21:00:00 15 10 Sudoeste 36 Sudoeste 0 -- -- 84
2019-10-19 20:00:00 15.9 9 Nordeste 22 Norte 0 -- -- 71
2019-10-19 19:00:00 16.9 5 Este 17 Este 0 -- -- 64
2019-10-19 18:00:00 17.5 5 Este 13 Nordeste 0 -- -- 62
2019-10-19 17:00:00 16.5 4 Este 11 Este 0 -- -- 64
2019-10-19 16:00:00 16.2 5 Norte 21 Sudoeste 0 -- -- 64
2019-10-19 15:00:00 16.4 13 Sudoeste 28 Sudoeste 0 -- -- 61
2019-10-19 14:00:00 17.7 5 Noroeste 26 Oeste 0 -- -- 54
2019-10-19 13:00:00 18.6 10 Noroeste 24 Oeste 0 -- -- 50
2019-10-19 12:00:00 17.4 6 Noroeste 18 Oeste 0 -- -- 54
2019-10-19 11:00:00 15.5 9 Oeste 19 Oeste 0 -- -- 66
2019-10-19 10:00:00 13.8 10 Oeste 19 Oeste 0 -- -- 75
2019-10-19 09:00:00 13.2 8 Sudoeste 20 Oeste 0 -- -- 76
2019-10-19 08:00:00 12.1 9 Oeste 21 Oeste 0 -- -- 82
2019-10-19 07:00:00 11.8 3 Noroeste 13 Oeste 0 -- -- 79
2019-10-19 06:00:00 13.9 6 Oeste 19 Noroeste 0 -- -- 71
2019-10-19 05:00:00 14.4 13 Noroeste 29 Oeste 0 -- -- 67
2019-10-19 04:00:00 14.5 14 Noroeste 30 Oeste 0 -- -- 68
2019-10-19 03:00:00 15 6 Sudoeste 21 Oeste 0 -- -- 69
2019-10-19 02:00:00 14.8 9 Noroeste 19 Oeste 0 -- -- 72
2019-10-19 01:00:00 14.8 11 Oeste 28 Oeste 0 -- -- 70
2019-10-19 00:00:00 14.7 8 Oeste 23 Oeste 0 -- -- 70
2019-10-18 23:00:00 14.4 3 Oeste 13 Sudoeste 0 -- -- 71
2019-10-18 22:00:00 16 6 Oeste 14 Oeste 0 -- -- 66
2019-10-18 21:00:00 17.1 7 Oeste 25 Oeste 0 -- -- 62
2019-10-18 20:00:00 19.8 13 Noroeste 36 Oeste 0 -- -- 55
2019-10-18 19:00:00 22.8 15 Oeste 30 Noroeste 0 -- -- 54
2019-10-18 18:00:00 23.6 12 Noroeste 27 Noroeste 0 -- -- 53
2019-10-18 17:00:00 24.1 12 Noroeste 28 Noroeste 0 -- -- 55
2019-10-18 16:00:00 23.2 18 Oeste 40 Noroeste 0 -- -- 58
2019-10-18 15:00:00 22.5 14 Noroeste 34 Noroeste 0 -- -- 65
2019-10-18 14:00:00 20.3 8 Noroeste 33 Noroeste 0 -- -- 83
2019-10-18 13:00:00 18.7 21 Oeste 33 Oeste 0 -- -- 86
2019-10-18 12:00:00 19.3 21 Oeste 34 Oeste 0 -- -- 83
2019-10-18 11:00:00 17.6 8 Oeste 17 Oeste 0 -- -- 89
2019-10-18 10:00:00 17.1 9 Oeste 15 Oeste 0 -- -- 90
2019-10-18 09:00:00 16.8 8 Oeste 12 Oeste 0.2 -- -- 90
2019-10-18 08:00:00 16.7 2 Oeste 12 Oeste 0 -- -- 91
2019-10-18 07:00:00 16.6 6 Oeste 10 Oeste 0 -- -- 92
2019-10-18 06:00:00 16.7 7 Oeste 11 Sudoeste 0 -- -- 92
2019-10-18 05:00:00 16.5 6 Oeste 12 Oeste 0 -- -- 92
2019-10-18 04:00:00 16.1 4 Sudoeste 7 Sur 0 -- -- 92
2019-10-18 03:00:00 16.1 4 Sudoeste 7 Sudoeste 0 -- -- 91
2019-10-18 02:00:00 16.1 3 Oeste 5 Oeste 0 -- -- 91
2019-10-18 01:00:00 16.1 3 Sudoeste 5 Sur 0 -- -- 90
2019-10-18 00:00:00 16.2 2 Este 5 Sudoeste 0 -- -- 89
2019-10-17 23:00:00 16.4 3 Sudoeste 6 Sudoeste 0 -- -- 86
2019-10-17 22:00:00 16.6 3 Sur 7 Sudoeste 0 -- -- 84
2019-10-17 21:00:00 16.9 0 Calma 8 Oeste 0 -- -- 83
2019-10-17 20:00:00 17 4 Norte 18 Noroeste 0 -- -- 82
2019-10-17 19:00:00 17.8 4 Noroeste 21 Noroeste 0 -- -- 78
2019-10-17 18:00:00 18.6 6 Noroeste 23 Noroeste 0 -- -- 74
2019-10-17 17:00:00 18.5 8 Noroeste 24 Noroeste 0 -- -- 72
2019-10-17 16:00:00 19 7 Noroeste 21 Noroeste 0 -- -- 70
2019-10-17 15:00:00 18.1 9 Noroeste 24 Sudoeste 0 -- -- 74
2019-10-17 14:00:00 18.1 9 Oeste 18 Oeste 0 -- -- 67
2019-10-17 13:00:00 17 6 Oeste 20 Noroeste 0 -- -- 77
2019-10-17 12:00:00 14 8 Oeste 15 Oeste 0 -- -- 89
2019-10-17 11:00:00 13.1 10 Oeste 15 Oeste 0 -- -- 89
2019-10-17 10:00:00 12.4 3 Noroeste 8 Oeste 0 -- -- 88
2019-10-17 09:00:00 11 0 Calma 9 Sur 0 -- -- 86
2019-10-17 08:00:00 10.7 2 Sudoeste 10 Sudoeste 0 -- -- 81
2019-10-17 07:00:00 9.4 3 Sudoeste 8 Sur 0 -- -- 84
2019-10-17 06:00:00 7.7 3 Sudoeste 6 Sur 0 -- -- 88
2019-10-17 05:00:00 7.5 0 Calma 6 Sur 0 -- -- 86
2019-10-17 04:00:00 8 2 Oeste 6 Sur 0 -- -- 85
2019-10-17 03:00:00 8.6 3 Sudoeste 6 Sur 0 -- -- 83
2019-10-17 02:00:00 9.3 3 Oeste 6 Noroeste 0 -- -- 80
2019-10-17 01:00:00 10.2 3 Noroeste 8 Oeste 0 -- -- 74
2019-10-17 00:00:00 10.7 3 Noroeste 9 Noroeste 0 -- -- 71
2019-10-16 23:00:00 11.6 4 Noroeste 10 Sudoeste 0 -- -- 67
2019-10-16 22:00:00 12.7 5 Sudoeste 8 Sudoeste 0.2 -- -- 64
2019-10-16 21:00:00 15.5 4 Sudoeste 12 Oeste 0 -- -- 52
2019-10-16 20:00:00 17.3 7 Oeste 23 Noroeste 0 -- -- 44
2019-10-16 19:00:00 20.2 13 Oeste 29 Oeste 0 -- -- 36
2019-10-16 18:00:00 21 14 Oeste 32 Oeste 0 -- -- 35
2019-10-16 17:00:00 21.2 14 Oeste 33 Oeste 0 -- -- 34
2019-10-16 16:00:00 20.9 17 Oeste 36 Oeste 0 -- -- 35
2019-10-16 15:00:00 20.6 16 Oeste 31 Noroeste 0 -- -- 39
2019-10-16 14:00:00 18.5 14 Oeste 29 Oeste 0 -- -- 47
2019-10-16 13:00:00 17.2 12 Oeste 20 Oeste 0 -- -- 53
2019-10-16 12:00:00 15 6 Sudoeste 14 Sur 0 -- -- 62
2019-10-16 11:00:00 12.3 4 Sudoeste 8 Este 0 -- -- 71
2019-10-16 10:00:00 8.3 3 Este 6 Este 0 -- -- 90
2019-10-16 09:00:00 4.9 0 Calma 3 Noroeste 0 -- -- 90
2019-10-16 08:00:00 5.2 2 Nordeste 4 Norte 0 -- -- 90
2019-10-16 07:00:00 5.6 0 Calma 3 Norte 0 -- -- 89
2019-10-16 06:00:00 6.1 0 Calma 4 Nordeste 0 -- -- 89
2019-10-16 05:00:00 6.6 0 Calma 4 Nordeste 0 -- -- 89
2019-10-16 04:00:00 6.4 0 Calma 3 Este 0 -- -- 87
2019-10-16 03:00:00 7 0 Calma 5 Nordeste 0 -- -- 87
2019-10-16 02:00:00 7.2 2 Este 4 Nordeste 0.2 -- -- 86
2019-10-16 01:00:00 7.6 2 Nordeste 4 Nordeste 0 -- -- 85
2019-10-16 00:00:00 8.5 0 Calma 5 Este 0 -- -- 81
2019-10-15 23:00:00 9.2 3 Noroeste 8 Noroeste 0 -- -- 77
2019-10-15 22:00:00 11 2 Sudoeste 8 Sur 0 -- -- 66
2019-10-15 21:00:00 12.6 0 Calma 12 Oeste 0 -- -- 62
2019-10-15 20:00:00 15.3 7 Oeste 22 Oeste 0 -- -- 50
2019-10-15 19:00:00 17.1 14 Oeste 25 Oeste 0 -- -- 40
2019-10-15 18:00:00 18.3 16 Oeste 28 Oeste 0 -- -- 31
2019-10-15 17:00:00 18.5 13 Oeste 29 Oeste 0 -- -- 35
2019-10-15 16:00:00 17.7 13 Oeste 26 Oeste 0 -- -- 39
2019-10-15 15:00:00 17.2 11 Oeste 29 Oeste 0 -- -- 45
2019-10-15 14:00:00 16 11 Oeste 26 Oeste 0 -- -- 50
2019-10-15 13:00:00 15.1 6 Oeste 16 Sudoeste 0 -- -- 56
2019-10-15 12:00:00 13.2 7 Oeste 16 Oeste 0 -- -- 64
2019-10-15 11:00:00 10.5 4 Este 10 Este 0 -- -- 82
2019-10-15 10:00:00 7.6 3 Nordeste 6 Este 0.2 -- -- 92
2019-10-15 09:00:00 4 2 Este 4 Este 0 -- -- 91
2019-10-15 08:00:00 4.5 0 Calma 6 Oeste 0 -- -- 91
2019-10-15 07:00:00 4.6 3 Oeste 8 Este 0 -- -- 91
2019-10-15 06:00:00 5.3 2 Norte 6 Oeste 0 -- -- 90
2019-10-15 05:00:00 6.4 3 Noroeste 11 Oeste 0 -- -- 89
2019-10-15 04:00:00 6.4 3 Oeste 5 Oeste 0 -- -- 88
2019-10-15 03:00:00 8.1 2 Noroeste 9 Sudoeste 0 -- -- 86
2019-10-15 02:00:00 9.6 5 Sudoeste 11 Oeste 0 -- -- 87
2019-10-15 01:00:00 9.6 7 Oeste 12 Oeste 0 -- -- 88
2019-10-15 00:00:00 10.2 4 Sudoeste 10 Oeste 0 -- -- 87
2019-10-14 23:00:00 11.8 3 Oeste 22 Oeste 0 -- -- 82
2019-10-14 22:00:00 12.2 10 Oeste 24 Oeste 0.2 -- -- 84
2019-10-14 21:00:00 12.9 10 Oeste 27 Sudoeste 0 -- -- 83
2019-10-14 20:00:00 13.5 12 Oeste 27 Oeste 0 -- -- 82
2019-10-14 19:00:00 13.3 10 Oeste 22 Oeste 0 -- -- 86
2019-10-14 18:00:00 12.8 17 Oeste 48 Oeste 0 -- -- 88
2019-10-14 17:00:00 13.5 28 Oeste -- -- 0 -- -- 85
2019-10-14 16:00:00 20.3 31 Oeste 56 Oeste 0 -- -- 36
2019-10-14 15:00:00 20.9 30 Oeste 49 Oeste 0 -- -- 39
2019-10-14 14:00:00 20.5 28 Oeste 52 Oeste 0.2 -- -- 45
2019-10-14 13:00:00 19 30 Oeste 51 Oeste 0 -- -- 54
2019-10-14 12:00:00 17.8 29 Oeste 53 Oeste 0 -- -- 69
2019-10-14 11:00:00 15.2 22 Oeste 39 Oeste 0.2 -- -- 81
2019-10-14 10:00:00 16.2 9 Oeste 29 Sudoeste 0 -- -- 79
2019-10-14 09:00:00 17.4 5 Sudoeste 31 Oeste 0 -- -- 66
2019-10-14 08:00:00 17.8 23 Oeste 44 Oeste 0 -- -- 65
2019-10-14 07:00:00 17.8 17 Oeste 28 Noroeste 0 -- -- 59
2019-10-14 06:00:00 15.7 3 Este 10 Nordeste 0 -- -- 70
2019-10-14 05:00:00 15.7 2 Este 10 Nordeste 0 -- -- 69
2019-10-14 04:00:00 15.7 3 Este 9 Este 0 -- -- 69
2019-10-14 03:00:00 15.8 3 Este 9 Nordeste 0 -- -- 66
2019-10-14 02:00:00 16.4 4 Este 12 Nordeste 0 -- -- 62
2019-10-14 01:00:00 17 5 Nordeste 9 Nordeste 0 -- -- 59
2019-10-14 00:00:00 17.5 4 Este 10 Nordeste 0 -- -- 53
2019-10-13 23:00:00 17.9 5 Nordeste 10 Nordeste 0 -- -- 52
2019-10-13 22:00:00 17.1 3 Este 5 Nordeste 0 -- -- 57
2019-10-13 21:00:00 19.3 0 Calma 5 Noroeste 0 -- -- 52
2019-10-13 20:00:00 23.6 2 Noroeste 26 Oeste 0 -- -- 36
2019-10-13 19:00:00 26.3 9 Sudoeste 26 Sudoeste 0 -- -- 28
2019-10-13 18:00:00 26.9 10 Sudoeste 24 Sur 0 -- -- 26
2019-10-13 17:00:00 26.2 3 Norte 16 Oeste 0 -- -- 32
2019-10-13 16:00:00 25.4 9 Oeste 18 Oeste 0 -- -- 35
2019-10-13 15:00:00 24.2 7 Sudoeste 19 Oeste 0 -- -- 40
2019-10-13 14:00:00 23.2 9 Oeste 22 Oeste 0 -- -- 42
2019-10-13 13:00:00 21.8 5 Noroeste 18 Oeste 0 -- -- 48
2019-10-13 12:00:00 21 6 Noroeste 17 Oeste 0 -- -- 54
2019-10-13 11:00:00 18.4 4 Oeste 10 Oeste 0 -- -- 67
2019-10-13 10:00:00 16.2 5 Sudoeste 8 Sur 0 -- -- 79
2019-10-13 09:00:00 12.9 0 Calma 4 Oeste 0 -- -- 84
2019-10-13 08:00:00 14.2 3 Noroeste 6 Sudoeste 0 -- -- 79
2019-10-13 07:00:00 16.8 6 Sudoeste 19 Oeste 0 -- -- 72
2019-10-13 06:00:00 16.9 3 Sudoeste 16 Oeste 0 -- -- 65
2019-10-13 05:00:00 17.7 6 Noroeste 15 Oeste 0 -- -- 62
2019-10-13 04:00:00 18.6 4 Este 10 Nordeste 0 -- -- 60
2019-10-13 03:00:00 19.5 3 Este 6 Este 0 -- -- 53
2019-10-13 02:00:00 19.8 3 Este 9 Nordeste 0 -- -- 52
2019-10-13 01:00:00 20.1 5 Este 9 Este 0 -- -- 50
2019-10-13 00:00:00 21 2 Nordeste 11 Nordeste 0 -- -- 47
2019-10-12 23:00:00 21.1 4 Norte 8 Norte 0 -- -- 46
2019-10-12 22:00:00 24 5 Sudoeste 19 Sudoeste 0 -- -- 34
2019-10-12 21:00:00 25.7 9 Sudoeste 24 Sur 0 -- -- 28
2019-10-12 20:00:00 26 3 Sudoeste 9 Sur 0 -- -- 31
2019-10-12 19:00:00 27.8 4 Sur 31 Noroeste 0 -- -- 27
2019-10-12 18:00:00 29.2 16 Oeste 38 Oeste 0 -- -- 23
2019-10-12 17:00:00 30 14 Oeste 35 Oeste 0 -- -- 20
2019-10-12 16:00:00 30.2 11 Este 24 Este 0 -- -- 25
2019-10-12 15:00:00 28.9 10 Este 24 Este 0 -- -- 29
2019-10-12 14:00:00 27.6 10 Este 26 Este 0 -- -- 35
2019-10-12 13:00:00 25.7 11 Este 23 Este 0 -- -- 40
2019-10-12 12:00:00 23.4 10 Este 30 Este 0 -- -- 47
2019-10-12 11:00:00 21.2 11 Este 26 Este 0 -- -- 54
2019-10-12 10:00:00 19.3 9 Este 29 Este 0 -- -- 60
2019-10-12 09:00:00 18.6 6 Este 18 Este 0 -- -- 65
2019-10-12 08:00:00 18.6 7 Este 14 Este 0 -- -- 64
2019-10-12 07:00:00 18 0 Calma 6 Sudeste 0 -- -- 70
2019-10-12 06:00:00 18.1 3 Este 6 Norte 0 -- -- 68
2019-10-12 05:00:00 18.5 0 Calma 8 Norte 0 -- -- 66
2019-10-12 04:00:00 19.8 4 Sur 8 Sudeste 0 -- -- 60
2019-10-12 03:00:00 19.6 4 Nordeste 8 Nordeste 0 -- -- 62
2019-10-12 02:00:00 19.5 5 Nordeste 8 Nordeste 0 -- -- 64
2019-10-12 01:00:00 19 0 Calma 6 Norte 0 -- -- 68
2019-10-12 00:00:00 20.1 2 Oeste 5 Sur 0 -- -- 61
2019-10-11 23:00:00 20.8 3 Noroeste 6 Sudoeste 0 -- -- 62
2019-10-11 22:00:00 21.7 0 Calma 4 Nordeste 0 -- -- 59
2019-10-11 21:00:00 23.1 0 Calma 5 Oeste 0 -- -- 55
2019-10-11 20:00:00 24.7 0 Calma 3 Oeste 0 -- -- 51
2019-10-11 19:00:00 26.9 0 Calma 10 Este 0 -- -- 43
2019-10-11 18:00:00 28.6 5 Nordeste 13 Este 0 -- -- 34
2019-10-11 17:00:00 28.6 5 Este 14 Este 0 -- -- 33
2019-10-11 16:00:00 28.2 6 Este 22 Sudeste 0 -- -- 35
2019-10-11 15:00:00 27.1 10 Este 27 Sudeste 0 -- -- 41
2019-10-11 14:00:00 25.7 12 Este 28 Este 0 -- -- 48
2019-10-11 13:00:00 23.9 12 Este 32 Este 0 -- -- 54
2019-10-11 12:00:00 22.3 14 Este 31 Este 0 -- -- 59
2019-10-11 11:00:00 21.1 14 Este 35 Este 0 -- -- 64
2019-10-11 10:00:00 18.9 13 Este 28 Sudeste 0 -- -- 69
2019-10-11 09:00:00 16.9 8 Este 16 Este 0 -- -- 78
2019-10-11 08:00:00 17.3 7 Este 23 Este 0 -- -- 75
2019-10-11 07:00:00 17.9 12 Este 24 Este 0 -- -- 70
2019-10-11 06:00:00 18.1 7 Este 19 Este 0 -- -- 64
2019-10-11 05:00:00 19.3 8 Este 21 Este 0 -- -- 66
2019-10-11 04:00:00 19.5 8 Este 19 Este 0 -- -- 61
2019-10-11 03:00:00 17.2 4 Este 9 Este 0 -- -- 63
2019-10-11 02:00:00 18 4 Este 9 Este 0 -- -- 57
2019-10-11 01:00:00 18.2 3 Este 8 Este 0 -- -- 55
2019-10-11 00:00:00 18.4 4 Nordeste 8 Nordeste 0 -- -- 55
2019-10-10 23:00:00 18.2 3 Nordeste 6 Nordeste 0 -- -- 58
2019-10-10 22:00:00 18.9 3 Este 4 Este 0 -- -- 57
2019-10-10 21:00:00 21.4 0 Calma 4 Norte 0 -- -- 53
2019-10-10 20:00:00 25.3 0 Calma 4 Sudeste 0 -- -- 44
2019-10-10 19:00:00 28.5 2 Este 10 Nordeste 0 -- -- 31
2019-10-10 18:00:00 28.9 5 Nordeste 12 Este 0 -- -- 29
2019-10-10 17:00:00 28.7 8 Este 21 Este 0 -- -- 30
2019-10-10 16:00:00 27.6 11 Sudeste 26 Sudeste 0 -- -- 36
2019-10-10 15:00:00 26.8 10 Este 36 Este 0 -- -- 40
2019-10-10 14:00:00 25 15 Este 37 Este 0 -- -- 45
2019-10-10 13:00:00 24.1 15 Este 34 Este 0 -- -- 49
2019-10-10 12:00:00 22.5 18 Este 33 Este 0 -- -- 49
2019-10-10 11:00:00 20.7 15 Este 27 Sudeste 0 -- -- 50
2019-10-10 10:00:00 18.1 10 Este 24 Sudeste 0 -- -- 55
2019-10-10 09:00:00 16.6 11 Este 24 Este 0 -- -- 58
2019-10-10 08:00:00 16.8 14 Este 24 Sudeste 0 -- -- 55
2019-10-10 07:00:00 14.6 5 Este 14 Sudeste 0 -- -- 62
2019-10-10 06:00:00 15 4 Este 12 Nordeste 0 -- -- 58
2019-10-10 05:00:00 14.3 5 Nordeste 10 Nordeste 0 -- -- 56
2019-10-10 04:00:00 14.4 3 Este 6 Este 0 -- -- 55
2019-10-10 03:00:00 14.6 3 Este 9 Este 0 -- -- 57
2019-10-10 02:00:00 15.7 4 Este 7 Este 0 -- -- 53
2019-10-10 01:00:00 15.5 4 Este 6 Este 0 -- -- 55
2019-10-10 00:00:00 15.1 0 Calma 5 Sur 0 -- -- 58
2019-10-09 23:00:00 16.8 6 Sudoeste 8 Sur 0 -- -- 55
2019-10-09 22:00:00 18.9 0 Calma 8 Sur 0 -- -- 51
2019-10-09 21:00:00 22.6 0 Calma 11 Oeste 0 -- -- 39
2019-10-09 20:00:00 27.6 6 Oeste 25 Noroeste 0 -- -- 25
2019-10-09 19:00:00 30.6 12 Oeste 27 Oeste 0 -- -- 20
2019-10-09 18:00:00 31.5 15 Oeste 28 Oeste 0 -- -- 20
2019-10-09 17:00:00 31.4 13 Oeste 23 Oeste 0 -- -- 23
2019-10-09 16:00:00 31 8 Oeste 21 Oeste 0 -- -- 26
2019-10-09 15:00:00 30 6 Sudoeste 17 Norte 0 -- -- 28
2019-10-09 14:00:00 28.1 6 Este 17 Este 0 -- -- 33
2019-10-09 13:00:00 26.1 7 Este 19 Este 0 -- -- 39
2019-10-09 12:00:00 24.1 9 Este 19 Este 0 -- -- 45
2019-10-09 11:00:00 21.4 4 Este 11 Este 0 -- -- 44
2019-10-09 10:00:00 16.6 5 Nordeste 14 Nordeste 0 -- -- 57
2019-10-09 09:00:00 14.5 4 Este 11 Este 0 -- -- 61
2019-10-09 08:00:00 14.2 4 Nordeste 11 Este 0 -- -- 61
2019-10-09 07:00:00 14.6 4 Este 10 Nordeste 0 -- -- 60
2019-10-09 06:00:00 15.3 5 Este 9 Este 0 -- -- 59
2019-10-09 05:00:00 16.1 4 Este 7 Este 0 -- -- 55
2019-10-09 04:00:00 16.6 5 Este 10 Este 0 -- -- 53
2019-10-09 03:00:00 16.9 5 Este 10 Este 0 -- -- 52
2019-10-09 02:00:00 17.2 3 Este 8 Nordeste 0 -- -- 54
2019-10-09 01:00:00 17.1 3 Este 5 Este 0 -- -- 58
2019-10-09 00:00:00 17.2 0 Calma 5 Noroeste 0 -- -- 56
2019-10-08 23:00:00 18.6 3 Noroeste 6 Sur 0 -- -- 51
2019-10-08 22:00:00 20.8 3 Sur 6 Sur 0 -- -- 47
2019-10-08 21:00:00 24.1 3 Sur 6 Sur 0 -- -- 35
2019-10-08 20:00:00 29.5 4 Noroeste 19 Oeste 0 -- -- 23
2019-10-08 19:00:00 32.6 10 Oeste 22 Oeste 0 -- -- 19
2019-10-08 18:00:00 33.5 6 Oeste 27 Noroeste 0 -- -- 18
2019-10-08 17:00:00 33.6 6 Noroeste 26 Noroeste 0 -- -- 18
2019-10-08 16:00:00 32.5 13 Oeste 26 Oeste 0 -- -- 19
2019-10-08 15:00:00 30.3 4 Nordeste 10 Nordeste 0 -- -- 23
2019-10-08 14:00:00 28.3 8 Este 18 Este 0 -- -- 25
2019-10-08 13:00:00 26.5 8 Este 18 Este 0 -- -- 27
2019-10-08 12:00:00 23.8 6 Este 15 Este 0 -- -- 33
2019-10-08 11:00:00 20.3 5 Este 13 Nordeste 0 -- -- 41
2019-10-08 10:00:00 17.7 4 Este 12 Nordeste 0 -- -- 49
2019-10-08 09:00:00 14.2 3 Este 9 Este 0 -- -- 58
2019-10-08 08:00:00 14.3 4 Este 10 Este 0 -- -- 58
2019-10-08 07:00:00 14.7 5 Nordeste 15 Este 0 -- -- 57
2019-10-08 06:00:00 15.7 7 Este 17 Este 0 -- -- 53
2019-10-08 05:00:00 14.8 7 Nordeste 12 Nordeste 0 -- -- 58
2019-10-08 04:00:00 15.9 4 Este 10 Nordeste 0 -- -- 52
2019-10-08 03:00:00 16.2 5 Este 9 Este 0 -- -- 52
2019-10-08 02:00:00 16.7 3 Este 9 Este 0 -- -- 52
2019-10-08 01:00:00 16.6 4 Este 7 Este 0 -- -- 52
2019-10-08 00:00:00 16.4 0 Calma 7 Sudoeste 0 -- -- 57
2019-10-07 23:00:00 17.4 3 Oeste 6 Sudoeste 0 -- -- 52
2019-10-07 22:00:00 19.8 2 Este 6 Sudeste 0 -- -- 49
2019-10-07 21:00:00 22.3 2 Este 5 Noroeste 0 -- -- 42
2019-10-07 20:00:00 28.6 2 Noroeste 15 Noroeste 0 -- -- 23
2019-10-07 19:00:00 31.2 9 Oeste 17 Oeste 0 -- -- 17
2019-10-07 18:00:00 31.8 8 Oeste -- -- -- -- -- 17
2019-10-07 17:00:00 32.1 5 Oeste 15 Oeste 0 -- -- 17
2019-10-07 16:00:00 31.3 7 Sudoeste 17 Oeste 0 -- -- 16
2019-10-07 15:00:00 29.1 6 Este 14 Nordeste 0 -- -- 19
2019-10-07 14:00:00 28.1 5 Nordeste 12 Nordeste 0 -- -- 21
2019-10-07 13:00:00 26.2 6 Este 14 Nordeste 0 -- -- 26
2019-10-07 12:00:00 23.6 6 Este 16 Este 0 -- -- 32
2019-10-07 11:00:00 20.4 5 Este 12 Este 0 -- -- 40
2019-10-07 10:00:00 16.2 5 Este 10 Sudeste 0 -- -- 57
2019-10-07 09:00:00 13 4 Este 8 Este 0 -- -- 67
2019-10-07 08:00:00 13 6 Este 12 Este 0 -- -- 66
2019-10-07 07:00:00 12.9 3 Nordeste 11 Este 0 -- -- 66
2019-10-07 06:00:00 13.7 4 Este 8 Nordeste 0 -- -- 62
2019-10-07 05:00:00 14.5 3 Este 10 Este 0 -- -- 59
2019-10-07 04:00:00 14.7 3 Este 8 Este 0 -- -- 59
2019-10-07 03:00:00 15.7 4 Este 10 Este 0 -- -- 56
2019-10-07 02:00:00 15.8 6 Este 12 Este 0 -- -- 58
2019-10-07 01:00:00 14.9 2 Nordeste 6 Este 0 -- -- 65
2019-10-07 00:00:00 16.1 2 Este 16 Este 0 -- -- 60
2019-10-06 23:00:00 16.7 3 Oeste 6 Sudeste 0 -- -- 56
2019-10-06 22:00:00 17.9 3 Norte 5 Sur 0 -- -- 54
2019-10-06 21:00:00 21.5 0 Calma 6 Oeste 0 -- -- 43
2019-10-06 20:00:00 26.7 5 Oeste 20 Oeste 0 -- -- 26
2019-10-06 19:00:00 29.3 13 Oeste 23 Oeste 0 -- -- 21
2019-10-06 18:00:00 29.7 11 Oeste 27 Oeste 0 -- -- 21
2019-10-06 17:00:00 29.8 14 Oeste 25 Oeste 0 -- -- 22
2019-10-06 16:00:00 29.3 8 Oeste 19 Oeste 0 -- -- 23
2019-10-06 15:00:00 28.1 6 Oeste 14 Oeste 0 -- -- 25
2019-10-06 14:00:00 26.9 5 Sudoeste 13 Oeste 0 -- -- 26
2019-10-06 13:00:00 24.6 3 Nordeste 12 Este 0 -- -- 34
2019-10-06 12:00:00 22.1 4 Este 13 Nordeste 0 -- -- 41
2019-10-06 11:00:00 18.7 4 Este 10 Sudeste 0 -- -- 55
2019-10-06 10:00:00 15.6 4 Este 9 Este 0 -- -- 66
2019-10-06 09:00:00 11.5 3 Este 10 Este 0 -- -- 82
2019-10-06 08:00:00 11.8 4 Este 9 Este 0 -- -- 81
2019-10-06 07:00:00 12.1 4 Nordeste 10 Este 0 -- -- 80
2019-10-06 06:00:00 12.8 3 Este 6 Nordeste 0 -- -- 78
2019-10-06 05:00:00 13.4 4 Nordeste 12 Este 0 -- -- 76
2019-10-06 04:00:00 14 4 Este 8 Nordeste 0 -- -- 72
2019-10-06 03:00:00 12.9 2 Este 4 Nordeste 0 -- -- 79
2019-10-06 02:00:00 13.9 0 Calma 5 Sudeste 0 -- -- 73
2019-10-06 01:00:00 14.7 0 Calma 3 Nordeste 0 -- -- 71
2019-10-06 00:00:00 16.2 2 Nordeste 5 Sur 0 -- -- 64
2019-10-05 23:00:00 17.9 3 Sur 9 Sur 0 -- -- 58
2019-10-05 22:00:00 20.7 3 Sudoeste 8 Oeste 0 -- -- 49
2019-10-05 21:00:00 22.7 5 Oeste 15 Oeste 0 -- -- 42
2019-10-05 20:00:00 26.9 9 Oeste 25 Noroeste 0 -- -- 31
2019-10-05 19:00:00 28.9 15 Oeste 30 Oeste 0 -- -- 28
2019-10-05 18:00:00 29.6 14 Oeste 30 Oeste 0 -- -- 26
2019-10-05 17:00:00 29.4 14 Oeste 28 Noroeste 0 -- -- 27
2019-10-05 16:00:00 29.2 11 Oeste 25 Sudoeste 0 -- -- 29
2019-10-05 15:00:00 28.4 10 Oeste 26 Oeste 0 -- -- 31
2019-10-05 14:00:00 26.7 10 Oeste 21 Oeste 0 -- -- 34
2019-10-05 13:00:00 25.5 3 Sur 9 Oeste 0 -- -- 36
2019-10-05 12:00:00 22.4 5 Este 12 Este 0 -- -- 41
2019-10-05 11:00:00 19.3 5 Este 10 Este 0 -- -- 49
2019-10-05 10:00:00 15.6 4 Este 11 Este 0 -- -- 58
2019-10-05 09:00:00 11.5 3 Este 6 Nordeste 0 -- -- 74
2019-10-05 08:00:00 11.5 4 Este 7 Este 0 -- -- 74
2019-10-05 07:00:00 12.1 3 Este 8 Nordeste 0 -- -- 72
2019-10-05 06:00:00 12.3 4 Este 8 Nordeste 0 -- -- 72
2019-10-05 05:00:00 12 2 Este 5 Este 0 -- -- 74
2019-10-05 04:00:00 12.1 2 Nordeste 4 Nordeste 0 -- -- 72
2019-10-05 03:00:00 12.7 3 Este 6 Este 0 -- -- 70
2019-10-05 02:00:00 13.1 3 Oeste 4 Sudoeste 0 -- -- 69
2019-10-05 01:00:00 14.2 2 Oeste 4 Noroeste 0 -- -- 63
2019-10-05 00:00:00 15.9 2 Noroeste 6 Noroeste 0 -- -- 59
2019-10-04 23:00:00 19.5 3 Noroeste 13 Sudoeste 0 -- -- 46
2019-10-04 22:00:00 20.1 5 Sudoeste 10 Sur 0 -- -- 42
2019-10-04 21:00:00 22.5 3 Oeste 15 Oeste 0 -- -- 35
2019-10-04 20:00:00 27 8 Noroeste 28 Oeste 0 -- -- 27
2019-10-04 19:00:00 29.4 14 Noroeste 32 Noroeste 0 -- -- 23
2019-10-04 18:00:00 29.9 17 Oeste 30 Oeste 0 -- -- 20
2019-10-04 17:00:00 30.7 14 Noroeste 32 Oeste 0 -- -- 18
2019-10-04 16:00:00 30.7 13 Noroeste 30 Oeste 0 -- -- 18
2019-10-04 15:00:00 29.4 10 Oeste 21 Oeste 0 -- -- 20
2019-10-04 14:00:00 26.7 6 Oeste 13 Noroeste 0 -- -- 24
2019-10-04 13:00:00 24.1 5 Nordeste 14 Este 0 -- -- 29
2019-10-04 12:00:00 22 5 Este 14 Este 0 -- -- 33
2019-10-04 11:00:00 18.7 6 Este 15 Este 0 -- -- 42
2019-10-04 10:00:00 15 4 Este 12 Este 0 -- -- 54
2019-10-04 09:00:00 11.4 4 Este 9 Nordeste 0 -- -- 66
2019-10-04 08:00:00 11.1 4 Este 11 Este 0 -- -- 65
2019-10-04 07:00:00 11.4 4 Este 8 Este 0 -- -- 65
2019-10-04 06:00:00 12.1 5 Nordeste 9 Nordeste 0 -- -- 63
2019-10-04 05:00:00 12.5 6 Nordeste 10 Nordeste 0 -- -- 64
2019-10-04 04:00:00 13.6 4 Este 12 Este 0 -- -- 57
2019-10-04 03:00:00 14.2 4 Este 9 Este 0 -- -- 57
2019-10-04 02:00:00 14.6 5 Nordeste 9 Nordeste 0 -- -- 59
2019-10-04 01:00:00 14.4 3 Este 7 Nordeste 0 -- -- 60
2019-10-04 00:00:00 14.3 2 Este 8 Este 0 -- -- 63
2019-10-03 23:00:00 15.1 3 Este 5 Noroeste 0 -- -- 61
2019-10-03 22:00:00 17.1 2 Noroeste 5 Sudeste 0 -- -- 54
2019-10-03 21:00:00 19.8 3 Este 7 Oeste 0 -- -- 46
2019-10-03 20:00:00 25.4 5 Oeste 22 Oeste 0 -- -- 28
2019-10-03 19:00:00 27.5 11 Noroeste 22 Oeste 0 -- -- 22
2019-10-03 18:00:00 28.1 13 Oeste 27 Oeste 0 -- -- 18
2019-10-03 17:00:00 28.5 11 Noroeste 27 Oeste 0 -- -- 20
2019-10-03 16:00:00 28.3 10 Oeste 25 Noroeste 0 -- -- 19
2019-10-03 15:00:00 26.8 9 Oeste 22 Oeste 0 -- -- 23
2019-10-03 14:00:00 25.8 5 Oeste 20 Oeste 0 -- -- 25
2019-10-03 13:00:00 23 5 Este 14 Este 0 -- -- 31
2019-10-03 12:00:00 20.2 6 Este 16 Este 0 -- -- 37
2019-10-03 11:00:00 16.9 6 Este 12 Este 0 -- -- 45
2019-10-03 10:00:00 13 4 Nordeste 8 Nordeste 0 -- -- 60
2019-10-03 09:00:00 10.3 3 Este 6 Este 0 -- -- 69
2019-10-03 08:00:00 10.6 3 Este 8 Nordeste 0 -- -- 66
2019-10-03 07:00:00 11.4 3 Este 8 Este 0 -- -- 66
2019-10-03 06:00:00 12.6 6 Nordeste 10 Nordeste 0 -- -- 60
2019-10-03 05:00:00 13.1 4 Nordeste 9 Este 0 -- -- 57
2019-10-03 04:00:00 12.5 3 Este 6 Este 0 -- -- 61
2019-10-03 03:00:00 11.4 2 Este 8 Este 0 -- -- 68
2019-10-03 02:00:00 11.3 2 Este 6 Este 0 -- -- 68
2019-10-03 01:00:00 11.7 0 Calma 4 Nordeste 0 -- -- 68
2019-10-03 00:00:00 12.8 0 Calma 5 Noroeste 0 -- -- 64
2019-10-02 23:00:00 14.7 0 Calma 6 Sudeste 0 -- -- 57
2019-10-02 22:00:00 16.1 3 Sudeste 12 Este 0 -- -- 55
2019-10-02 21:00:00 18.7 3 Oeste 5 Sur 0 -- -- 47
2019-10-02 20:00:00 23.9 0 Calma 5 Oeste 0 -- -- 37
2019-10-02 19:00:00 27.5 4 Sudoeste 10 Sudoeste 0 -- -- 19
2019-10-02 18:00:00 27.1 3 Sudeste 11 Sur 0 -- -- 21
2019-10-02 17:00:00 26.7 5 Sudoeste 15 Nordeste 0 -- -- 21
2019-10-02 16:00:00 26 6 Norte 16 Sudeste 0 -- -- 26
2019-10-02 15:00:00 25.4 5 Este 19 Este 0 -- -- 26
2019-10-02 14:00:00 24.2 5 Sudeste 15 Sudeste 0 -- -- 30
2019-10-02 13:00:00 22.6 6 Este 19 Este 0 -- -- 33
2019-10-02 12:00:00 20.7 5 Este 16 Este 0 -- -- 41
2019-10-02 11:00:00 17.6 5 Este 11 Nordeste 0 -- -- 54
2019-10-02 10:00:00 13.7 5 Este 13 Nordeste 0 -- -- 70
2019-10-02 09:00:00 10.1 4 Este 10 Nordeste 0 -- -- 82
2019-10-02 08:00:00 10.2 4 Este 8 Nordeste 0 -- -- 82
2019-10-02 07:00:00 10.7 5 Este 9 Nordeste 0 -- -- 82
2019-10-02 06:00:00 9.7 2 Este 6 Este 0 -- -- 83
2019-10-02 05:00:00 10.5 0 Calma 6 Noroeste 0 -- -- 82
2019-10-02 04:00:00 11.8 0 Calma 6 Noroeste 0 -- -- 74
2019-10-02 03:00:00 14 2 Norte 15 Sudoeste 0 -- -- 67
2019-10-02 02:00:00 13.7 2 Sudoeste 5 Sudoeste 0 -- -- 68
2019-10-02 01:00:00 16.2 6 Oeste 11 Sudoeste 0 -- -- 59
2019-10-02 00:00:00 18.9 4 Sur 14 Sudoeste 0 -- -- 51
2019-10-01 23:00:00 19.8 6 Sudoeste 15 Sudoeste 0 -- -- 47
2019-10-01 22:00:00 21.3 7 Sudoeste 16 Sudoeste 0 -- -- 44
2019-10-01 21:00:00 23.2 7 Sudoeste 28 Oeste 0 -- -- 39
2019-10-01 20:00:00 25.3 20 Oeste 41 Oeste 0 -- -- 34
2019-10-01 19:00:00 27.6 23 Oeste 41 Oeste 0 -- -- 30
2019-10-01 18:00:00 28.2 26 Oeste 42 Oeste 0 -- -- 29
2019-10-01 17:00:00 29.2 20 Oeste 44 Sudoeste 0 -- -- 27
2019-10-01 16:00:00 28.6 16 Oeste 35 Oeste 0 -- -- 25
2019-10-01 15:00:00 27.7 18 Oeste 44 Oeste 0 -- -- 29
2019-10-01 14:00:00 25.5 17 Oeste 33 Oeste 0 -- -- 39
2019-10-01 13:00:00 24.8 12 Oeste 33 Noroeste 0 -- -- 45
2019-10-01 12:00:00 23.8 14 Noroeste 30 Noroeste 0 -- -- 46
2019-10-01 11:00:00 21.9 14 Oeste 26 Oeste 0 -- -- 51
2019-10-01 10:00:00 15.6 0 Calma 5 Sudeste 0 -- -- 57
2019-10-01 09:00:00 10.4 0 Calma 4 Nordeste 0 -- -- 73
2019-10-01 08:00:00 10.9 0 Calma 4 Oeste 0 -- -- 71
2019-10-01 07:00:00 12.2 3 Noroeste 6 Noroeste 0 -- -- 64
2019-10-01 06:00:00 12.7 2 Este 4 Este 0 -- -- 60
2019-10-01 05:00:00 12.6 3 Este 4 Sudeste 0 -- -- 59
2019-10-01 04:00:00 11.7 2 Nordeste 7 Este 0 -- -- 63
2019-10-01 03:00:00 11.8 0 Calma 4 Nordeste 0 -- -- 64
2019-10-01 02:00:00 12.4 2 Nordeste 4 Nordeste 0 -- -- 62
2019-10-01 01:00:00 13.7 0 Calma 5 Noroeste 0 -- -- 58
2019-10-01 00:00:00 14.8 0 Calma 5 Noroeste 0 -- -- 53
2019-09-30 23:00:00 16.3 3 Oeste 4 Oeste 0 -- -- 49
2019-09-30 22:00:00 18.7 2 Noroeste 4 Oeste 0 -- -- 42
2019-09-30 21:00:00 22.7 0 Calma 7 Noroeste 0 -- -- 29
2019-09-30 20:00:00 28.9 3 Noroeste 22 Noroeste 0 -- -- 17
2019-09-30 19:00:00 32.3 9 Noroeste 28 Oeste 0 -- -- 13
2019-09-30 18:00:00 32.9 15 Noroeste 30 Oeste 0 -- -- 12
2019-09-30 17:00:00 33.2 11 Oeste 29 Oeste 0 -- -- 13
2019-09-30 16:00:00 32.9 16 Oeste 28 Oeste 0 -- -- 13
2019-09-30 15:00:00 -- -- -- -- -- -- -- -- --
2019-09-30 14:00:00 28.4 5 Nordeste 16 Este 0 -- -- 21
2019-09-30 13:00:00 25.9 8 Este 15 Sudeste 0 -- -- 23
2019-09-30 12:00:00 23 6 Este 16 Nordeste 0 -- -- 27
2019-09-30 11:00:00 18.9 6 Este 13 Nordeste 0 -- -- 35
2019-09-30 10:00:00 15.4 4 Este 10 Este 0 -- -- 42
2019-09-30 09:00:00 11.1 5 Este 9 Este 0 -- -- 51
2019-09-30 08:00:00 10.9 4 Este 8 Nordeste 0 -- -- 50
2019-09-30 07:00:00 11.6 5 Este 9 Nordeste 0 -- -- 48
2019-09-30 06:00:00 12 5 Este 8 Nordeste 0 -- -- 48
2019-09-30 05:00:00 12.3 5 Este 9 Nordeste 0 -- -- 49
2019-09-30 04:00:00 12.8 3 Este 10 Este 0 -- -- 47
2019-09-30 03:00:00 12.9 3 Este 9 Este 0 -- -- 47
2019-09-30 02:00:00 12.9 2 Este 6 Nordeste 0 -- -- 52
2019-09-30 01:00:00 12.4 2 Nordeste 6 Este 0 -- -- 57
2019-09-30 00:00:00 13.6 2 Noroeste 5 Oeste 0 -- -- 53
2019-09-29 23:00:00 15.4 0 Calma 8 Sudoeste 0 -- -- 48
2019-09-29 22:00:00 17.7 3 Sur 7 Sudoeste 0 -- -- 36
2019-09-29 21:00:00 22.4 3 Sudoeste 10 Noroeste 0 -- -- 22
2019-09-29 20:00:00 28.3 7 Noroeste 27 Noroeste 0 -- -- 13
2019-09-29 19:00:00 32 14 Noroeste 31 Noroeste 0 -- -- 10
2019-09-29 18:00:00 32.1 18 Oeste 34 Noroeste 0 -- -- 12
2019-09-29 17:00:00 32.6 15 Oeste 37 Noroeste 0 -- -- 13
2019-09-29 16:00:00 32 14 Oeste 32 Oeste 0 -- -- 13
2019-09-29 15:00:00 31.3 15 Oeste 29 Oeste 0 -- -- 16
2019-09-29 14:00:00 28.5 4 Noroeste 12 Noroeste 0 -- -- 20
2019-09-29 13:00:00 25.3 4 Este 16 Este 0 -- -- 26
2019-09-29 12:00:00 22.5 8 Este 16 Este 0 -- -- 31
2019-09-29 11:00:00 19.1 5 Este 15 Este 0 -- -- 36
2019-09-29 10:00:00 15.6 4 Este 9 Este 0 -- -- 46
2019-09-29 09:00:00 12 5 Nordeste 9 Nordeste 0 -- -- 58
2019-09-29 08:00:00 11.7 5 Este 10 Este 0 -- -- 58
2019-09-29 07:00:00 12.3 5 Nordeste 12 Este 0 -- -- 52
2019-09-29 06:00:00 12.7 5 Este 9 Este 0 -- -- 52
2019-09-29 05:00:00 13 6 Nordeste 11 Nordeste 0 -- -- 53
2019-09-29 04:00:00 13.9 3 Este 7 Este 0 -- -- 48
2019-09-29 03:00:00 14.7 4 Este 9 Nordeste 0 -- -- 48
2019-09-29 02:00:00 13.9 3 Este 6 Este 0 -- -- 54
2019-09-29 01:00:00 13.3 2 Este 5 Este 0 -- -- 62
2019-09-29 00:00:00 14.8 2 Sur 8 Sudeste 0 -- -- 53
2019-09-28 23:00:00 16.3 2 Oeste 5 Oeste 0 -- -- 51
2019-09-28 22:00:00 18.6 3 Oeste 5 Noroeste 0 -- -- 44
2019-09-28 21:00:00 23 4 Noroeste 7 Oeste 0 -- -- 30
2019-09-28 20:00:00 28.7 4 Noroeste 18 Noroeste 0 -- -- 20
2019-09-28 19:00:00 31.9 5 Noroeste 26 Oeste 0 -- -- 14
2019-09-28 18:00:00 32 12 Oeste 27 Oeste 0 -- -- 13
2019-09-28 17:00:00 31.9 14 Oeste 24 Oeste 0 -- -- 13
2019-09-28 16:00:00 31.4 10 Oeste 26 Oeste 0 -- -- 13
2019-09-28 15:00:00 29.8 8 Oeste 21 Oeste 0 -- -- 17
2019-09-28 14:00:00 27.6 3 Este 17 Sudeste 0 -- -- 23
2019-09-28 13:00:00 25.3 6 Este 17 Nordeste 0 -- -- 30
2019-09-28 12:00:00 22.7 7 Este 19 Este 0 -- -- 37
2019-09-28 11:00:00 19.2 4 Este 12 Este 0 -- -- 47
2019-09-28 10:00:00 15.9 3 Este 10 Nordeste 0 -- -- 51
2019-09-28 09:00:00 11.9 4 Este 12 Este 0 -- -- 64
2019-09-28 08:00:00 11.4 5 Este 12 Nordeste 0 -- -- 62
2019-09-28 07:00:00 12.5 6 Nordeste 11 Nordeste 0 -- -- 59
2019-09-28 06:00:00 13.1 4 Este 8 Este 0 -- -- 55
2019-09-28 05:00:00 13.5 5 Este 10 Este 0 -- -- 56
2019-09-28 04:00:00 13.3 3 Este 8 Nordeste 0 -- -- 57
2019-09-28 03:00:00 14.7 4 Este 9 Este 0 -- -- 51
2019-09-28 02:00:00 15.3 4 Este 12 Este 0 -- -- 50
2019-09-28 01:00:00 14.9 3 Este 6 Este 0 -- -- 56
2019-09-28 00:00:00 15.4 4 Oeste 5 Sur 0 -- -- 57
2019-09-27 23:00:00 17.5 4 Sur 11 Sur 0 -- -- 46
2019-09-27 22:00:00 19.8 2 Sudoeste 5 Oeste 0 -- -- 37
2019-09-27 21:00:00 23.4 3 Noroeste 21 Oeste 0 -- -- 25
2019-09-27 20:00:00 27.9 14 Oeste 26 Oeste 0 -- -- 15
2019-09-27 19:00:00 30.3 18 Oeste 30 Oeste 0 -- -- 14
2019-09-27 18:00:00 31.1 17 Oeste 34 Noroeste 0 -- -- 14
2019-09-27 17:00:00 30.9 17 Oeste 34 Noroeste 0 -- -- 16
2019-09-27 16:00:00 30.9 13 Oeste 33 Oeste 0 -- -- 18
2019-09-27 15:00:00 29.8 17 Oeste 33 Oeste 0 -- -- 19
2019-09-27 14:00:00 27.6 10 Oeste 21 Oeste 0 -- -- 27
2019-09-27 13:00:00 26.5 8 Oeste 17 Oeste 0 -- -- 31
2019-09-27 12:00:00 24.1 3 Sudoeste 8 Nordeste 0 -- -- 39
2019-09-27 11:00:00 21 4 Este 12 Este 0 -- -- 48
2019-09-27 10:00:00 17.1 7 Este 12 Este 0 -- -- 62
2019-09-27 09:00:00 13.5 4 Este 8 Este 0 -- -- 74
2019-09-27 08:00:00 12.8 4 Nordeste 9 Nordeste 0 -- -- 79
2019-09-27 07:00:00 13.2 4 Nordeste 8 Este 0 -- -- 77
2019-09-27 06:00:00 13.6 3 Este 6 Este 0 -- -- 74
2019-09-27 05:00:00 14.5 4 Este 6 Nordeste 0 -- -- 73
2019-09-27 04:00:00 14.6 4 Este 7 Nordeste 0 -- -- 72
2019-09-27 03:00:00 14.6 2 Este 5 Este 0 -- -- 74
2019-09-27 02:00:00 14.6 0 Calma 4 Norte 0 -- -- 73
2019-09-27 01:00:00 15.7 0 Calma 5 Noroeste 0 -- -- 68
2019-09-27 00:00:00 16.9 3 Oeste 4 Noroeste 0 -- -- 66
2019-09-26 23:00:00 18.3 2 Sudoeste 3 Sudoeste 0 -- -- 60
2019-09-26 22:00:00 20.4 0 Calma 2 Sudoeste 0 -- -- 53
2019-09-26 21:00:00 24.1 0 Calma 14 Oeste 0 -- -- 39
2019-09-26 20:00:00 28.1 9 Noroeste 24 Noroeste 0 -- -- 28
2019-09-26 19:00:00 30.5 10 Oeste 24 Oeste 0 -- -- 25
2019-09-26 18:00:00 30.7 11 Oeste 26 Oeste 0 -- -- 23
2019-09-26 17:00:00 30.9 9 Oeste 26 Noroeste 0 -- -- 22
2019-09-26 16:00:00 29.8 8 Oeste 22 Sudoeste 0 -- -- 24
2019-09-26 15:00:00 28.7 6 Sudoeste 17 Sudoeste 0 -- -- 26
2019-09-26 14:00:00 26.9 3 Sudeste 14 Sudeste 0 -- -- 29
2019-09-26 13:00:00 25.2 5 Este 17 Nordeste 0 -- -- 33
2019-09-26 12:00:00 23 5 Este 18 Este 0 -- -- 40
2019-09-26 11:00:00 20.3 8 Este 17 Nordeste 0 -- -- 47
2019-09-26 10:00:00 16.3 7 Este 16 Este 0 -- -- 64
2019-09-26 09:00:00 13.4 3 Nordeste 9 Este 0 -- -- 76
2019-09-26 08:00:00 13.2 3 Este 9 Este 0 -- -- 75
2019-09-26 07:00:00 13.8 4 Este 8 Nordeste 0 -- -- 73
2019-09-26 06:00:00 13.9 4 Este 11 Este 0 -- -- 74
2019-09-26 05:00:00 14 4 Nordeste 8 Este 0 -- -- 76
2019-09-26 04:00:00 14.5 4 Nordeste 7 Nordeste 0 -- -- 77
2019-09-26 03:00:00 14.3 2 Este 5 Nordeste 0 -- -- 79
2019-09-26 02:00:00 14.9 0 Calma 4 Este 0 -- -- 76
2019-09-26 01:00:00 15.9 3 Este 6 Este 0 -- -- 72
2019-09-26 00:00:00 16.4 3 Oeste 4 Sudoeste 0 -- -- 69
2019-09-25 23:00:00 17.9 2 Sudeste 6 Sudoeste 0 -- -- 62
2019-09-25 22:00:00 19.4 2 Sudoeste 6 Oeste 0 -- -- 53
2019-09-25 21:00:00 22.1 3 Noroeste 11 Oeste 0 -- -- 42
2019-09-25 20:00:00 25.6 5 Oeste 15 Oeste 0 -- -- 31
2019-09-25 19:00:00 26.9 9 Oeste 19 Sudoeste 0 -- -- 28
2019-09-25 18:00:00 27.1 8 Sudoeste 21 Oeste 0 -- -- 28
2019-09-25 17:00:00 27.4 10 Oeste 21 Oeste 0 -- -- 28
2019-09-25 16:00:00 26.4 6 Oeste 19 Oeste 0 -- -- 30
2019-09-25 15:00:00 25.4 6 Oeste 20 Oeste 0 -- -- 32
2019-09-25 14:00:00 23.5 4 Norte 13 Noroeste 0 -- -- 36
2019-09-25 13:00:00 22.5 5 Sudoeste 13 Oeste 0 -- -- 44
2019-09-25 12:00:00 21.3 3 Noroeste 10 Norte 0 -- -- 49
2019-09-25 11:00:00 19 3 Sur 8 Sudoeste 0 -- -- 59
2019-09-25 10:00:00 16.3 3 Nordeste 7 Este 0 -- -- 80
2019-09-25 09:00:00 12.2 3 Sudeste 5 Nordeste 0 -- -- 90
2019-09-25 08:00:00 11.3 0 Calma 4 Nordeste 0 -- -- 87
2019-09-25 07:00:00 11.9 2 Norte 4 Noroeste 0 -- -- 87
2019-09-25 06:00:00 13.2 0 Calma 6 Nordeste 0 -- -- 86
2019-09-25 05:00:00 14.6 0 Calma 8 Sudoeste 0 -- -- 81
2019-09-25 04:00:00 16.1 5 Oeste 10 Oeste 0 -- -- 78
2019-09-25 03:00:00 17.6 4 Oeste 15 Oeste 0 -- -- 74
2019-09-25 02:00:00 19 8 Oeste 23 Oeste 0 -- -- 69
2019-09-25 01:00:00 20.1 14 Oeste 39 Oeste 0 -- -- 67
2019-09-25 00:00:00 21.2 21 Oeste 37 Oeste 0 -- -- 67
2019-09-24 23:00:00 22 7 Noroeste 28 Oeste 0 -- -- 65
2019-09-24 22:00:00 23.2 19 Oeste 33 Oeste 0 -- -- 61
2019-09-24 21:00:00 23.5 13 Oeste 39 Oeste 0 -- -- 58
2019-09-24 20:00:00 25 28 Oeste 46 Oeste 0 -- -- 53
2019-09-24 19:00:00 26.7 25 Oeste 49 Oeste 0 -- -- 47
2019-09-24 18:00:00 28.3 28 Oeste 46 Oeste 0 -- -- 41
2019-09-24 17:00:00 28.3 24 Oeste 43 Noroeste 0 -- -- 40
2019-09-24 16:00:00 28.8 22 Oeste 41 Oeste 0 -- -- 35
2019-09-24 15:00:00 27.6 20 Oeste 37 Oeste 0 -- -- 30
2019-09-24 14:00:00 26.1 18 Noroeste 35 Oeste 0 -- -- 32
2019-09-24 13:00:00 24.4 19 Oeste 35 Oeste 0 -- -- 39
2019-09-24 12:00:00 23.3 10 Noroeste 26 Oeste 0 -- -- 46
2019-09-24 11:00:00 20.1 10 Oeste 20 Oeste 0 -- -- 54
2019-09-24 10:00:00 15.3 3 Sur 7 Sur 0 -- -- 71
2019-09-24 09:00:00 10 2 Sudoeste 5 Sudoeste 0 -- -- 88
2019-09-24 08:00:00 9.4 3 Noroeste 4 Norte 0 -- -- 87
2019-09-24 07:00:00 10 0 Calma 3 Oeste 0 -- -- 87
2019-09-24 06:00:00 10.4 0 Calma 4 Sudoeste 0 -- -- 85
2019-09-24 05:00:00 11 0 Calma 4 Sur 0 -- -- 84
2019-09-24 04:00:00 11.9 2 Este 5 Noroeste 0 -- -- 83
2019-09-24 03:00:00 12.2 3 Oeste 5 Noroeste 0 -- -- 78
2019-09-24 02:00:00 12.8 2 Oeste 5 Noroeste 0 -- -- 73
2019-09-24 01:00:00 13.8 3 Oeste 4 Oeste 0 -- -- 74
2019-09-24 00:00:00 15 0 Calma 3 Oeste 0 -- -- 69
2019-09-23 23:00:00 16.6 2 Oeste 4 Sur 0 -- -- 60
2019-09-23 22:00:00 19 2 Oeste 8 Sudoeste 0 -- -- 50
2019-09-23 21:00:00 21.4 4 Oeste 19 Oeste 0 -- -- 39
2019-09-23 20:00:00 24.9 9 Noroeste 21 Oeste 0 -- -- 26
2019-09-23 19:00:00 26.2 14 Oeste 28 Oeste 0 -- -- 21
2019-09-23 18:00:00 26.6 12 Oeste 27 Oeste 0 -- -- 21
2019-09-23 17:00:00 26.5 12 Oeste 27 Oeste 0 -- -- 22
2019-09-23 16:00:00 25.4 12 Oeste 26 Oeste 0 -- -- 26
2019-09-23 15:00:00 24.8 9 Oeste 26 Oeste 0 -- -- 30
2019-09-23 14:00:00 23.6 12 Oeste 23 Oeste 0 -- -- 36
2019-09-23 13:00:00 21.8 10 Oeste 21 Oeste 0 -- -- 44
2019-09-23 12:00:00 20 4 Sudoeste 15 Oeste 0 -- -- 52
2019-09-23 11:00:00 17.8 3 Sur 10 Este 0 -- -- 65
2019-09-23 10:00:00 14.6 4 Nordeste 8 Nordeste 0 -- -- 83
2019-09-23 09:00:00 11.1 2 Nordeste 4 Nordeste 0 -- -- 90
2019-09-23 08:00:00 10.5 2 Este 4 Este 0 -- -- 90
2019-09-23 07:00:00 10.4 0 Calma 4 Nordeste 0 -- -- 89
2019-09-23 06:00:00 10.9 2 Norte 6 Este 0 -- -- 88
2019-09-23 05:00:00 11.6 0 Calma 5 Sudeste 0 -- -- 87
2019-09-23 04:00:00 12.2 0 Calma 4 Este 0 -- -- 87
2019-09-23 03:00:00 12.8 2 Nordeste 5 Sur 0 -- -- 85
2019-09-23 02:00:00 13.9 2 Sur 7 Sudoeste 0 -- -- 80
2019-09-23 01:00:00 14.3 4 Oeste 8 Noroeste 0 -- -- 79
2019-09-23 00:00:00 15.4 3 Sudoeste 8 Sudoeste 0 -- -- 73
2019-09-22 23:00:00 17.6 4 Sudoeste 12 Oeste 0 -- -- 64
2019-09-22 22:00:00 18.9 9 Oeste 20 Oeste 0 -- -- 58
2019-09-22 21:00:00 20.2 12 Oeste 30 Noroeste 0 -- -- 51
2019-09-22 20:00:00 21.9 17 Oeste 32 Oeste 0 -- -- 44
2019-09-22 19:00:00 23.6 17 Oeste 33 Noroeste 0 -- -- 37
2019-09-22 18:00:00 24 21 Oeste 38 Oeste 0 -- -- 36
2019-09-22 17:00:00 23.9 21 Oeste 41 Oeste 0 -- -- 39
2019-09-22 16:00:00 23.5 22 Oeste 41 Noroeste 0 -- -- 44
2019-09-22 15:00:00 23.1 15 Noroeste 33 Noroeste 0 -- -- 51
2019-09-22 14:00:00 21.3 16 Noroeste 31 Noroeste 0 -- -- 58
2019-09-22 13:00:00 20.1 14 Noroeste 31 Oeste 0 -- -- 66
2019-09-22 12:00:00 19.1 18 Oeste 29 Oeste 0 -- -- 70
2019-09-22 11:00:00 16.9 16 Noroeste 32 Noroeste 0 -- -- 76
2019-09-22 10:00:00 16.7 13 Noroeste 23 Noroeste 0 -- -- 84
2019-09-22 09:00:00 16.8 10 Oeste 27 Oeste 0 -- -- 87
2019-09-22 08:00:00 17.8 9 Oeste 21 Oeste 0 -- -- 90
2019-09-22 07:00:00 17.9 3 Sudoeste 6 Sudoeste 0 -- -- 90
2019-09-22 06:00:00 17.9 0 Calma 7 Sur 0 -- -- 89
2019-09-22 05:00:00 18 3 Sur 7 Sudoeste 0 -- -- 88
2019-09-22 04:00:00 18.1 2 Sur 4 Este 0 -- -- 87
2019-09-22 03:00:00 18.1 0 Calma 6 Sudeste 0 -- -- 87
2019-09-22 02:00:00 18 4 Norte 9 Este 0 -- -- 83
2019-09-22 01:00:00 17.9 0 Calma 9 Nordeste 0 -- -- 82
2019-09-22 00:00:00 18 4 Este 8 Nordeste 0 -- -- 81
2019-09-21 23:00:00 18.2 0 Calma 9 Sur 0 -- -- 80
2019-09-21 22:00:00 18.4 3 Sur 9 Sudoeste 0 -- -- 79
2019-09-21 21:00:00 18.6 0 Calma 8 Oeste 0 -- -- 78
2019-09-21 20:00:00 18.9 6 Oeste 15 Noroeste 0 -- -- 75
2019-09-21 19:00:00 19.4 6 Noroeste 19 Norte 0 -- -- 76
2019-09-21 18:00:00 20.4 4 Noroeste 19 Noroeste 0 -- -- 76
2019-09-21 17:00:00 21.7 5 Noroeste 13 Noroeste 0 -- -- 69
2019-09-21 16:00:00 22.1 5 Noroeste 15 Oeste 0 -- -- 67
2019-09-21 15:00:00 22.1 4 Oeste 11 Norte 0 -- -- 63
2019-09-21 14:00:00 21.7 5 Norte 16 Noroeste 0 -- -- 66
2019-09-21 13:00:00 21.9 7 Oeste 17 Oeste 0 -- -- 63
2019-09-21 12:00:00 21.1 2 Noroeste 8 Este 0 -- -- 64
2019-09-21 11:00:00 19.9 3 Este 13 Nordeste 0 -- -- 69
2019-09-21 10:00:00 18.5 5 Nordeste 10 Nordeste 0 -- -- 75
2019-09-21 09:00:00 17.1 3 Este 8 Este 0 -- -- 81
2019-09-21 08:00:00 16.4 3 Este 6 Nordeste 0 -- -- 83
2019-09-21 07:00:00 16.6 2 Este 4 Nordeste 0 -- -- 82
2019-09-21 06:00:00 16.7 2 Este 6 Este 0 -- -- 83
2019-09-21 05:00:00 16 0 Calma 4 Este 0 -- -- 84
2019-09-21 04:00:00 17 0 Calma 8 Sudoeste 0 -- -- 77
2019-09-21 03:00:00 18.3 4 Sudoeste 7 Sudoeste 0 -- -- 72
2019-09-21 02:00:00 20.2 3 Sudoeste 15 Oeste 0 -- -- 66
2019-09-21 01:00:00 20.8 8 Oeste 14 Oeste 0 -- -- 62
2019-09-21 00:00:00 21.2 4 Sudoeste 12 Oeste 0 -- -- 60
2019-09-20 23:00:00 21.5 6 Oeste 17 Oeste 0 -- -- 58
2019-09-20 22:00:00 22.7 9 Oeste 38 Oeste 0 -- -- 50
2019-09-20 21:00:00 23.9 22 Oeste 40 Oeste 0 -- -- 45
2019-09-20 20:00:00 26.6 12 Sudoeste 38 Oeste 0 -- -- 32
2019-09-20 19:00:00 28.8 19 Oeste 44 Oeste 0 -- -- 29
2019-09-20 18:00:00 29.1 6 Sudoeste 32 Este 0 -- -- 29
2019-09-20 17:00:00 28.6 5 Este 19 Sudeste 0 -- -- 30
2019-09-20 16:00:00 28.3 6 Este 20 Este 0 -- -- 32
2019-09-20 15:00:00 28.5 7 Sudeste 31 Sudeste 0 -- -- 31
2019-09-20 14:00:00 27.7 6 Este 21 Este 0 -- -- 38
2019-09-20 13:00:00 25.5 7 Este 25 Este 0 -- -- 48
2019-09-20 12:00:00 24 10 Este 26 Nordeste 0 -- -- 57
2019-09-20 11:00:00 22.9 12 Este 29 Este 0 -- -- 62
2019-09-20 10:00:00 20.7 8 Este 21 Sudeste 0 -- -- 70
2019-09-20 09:00:00 19.3 5 Este 14 Este 0 -- -- 76
2019-09-20 08:00:00 19.2 2 Este 19 Sudeste 0 -- -- 75
2019-09-20 07:00:00 19.4 7 Este 14 Este 0 -- -- 74
2019-09-20 06:00:00 19 4 Este 11 Este 0 -- -- 74
2019-09-20 05:00:00 20.2 5 Este 17 Sudeste 0 -- -- 66
2019-09-20 04:00:00 21 8 Este 15 Este 0 -- -- 62
2019-09-20 03:00:00 20.5 7 Nordeste 17 Nordeste 0 -- -- 65
2019-09-20 02:00:00 19.1 3 Sudeste 17 Sudoeste 0 -- -- 77
2019-09-20 01:00:00 19.7 2 Sur 4 Sudoeste 0 -- -- 74
2019-09-20 00:00:00 20.7 3 Noroeste 6 Oeste 0 -- -- 69